sensor_id;sensor_type;location;lat;lon;timestamp;P1;durP1;ratioP1;P2;durP2;ratioP2
40755;SDS011;26461;45.630;9.418;2022-11-15T00:01:20;11.88;;;6.28;;
40755;SDS011;26461;45.630;9.418;2022-11-15T00:04:49;12.98;;;8.23;;
40755;SDS011;26461;45.630;9.418;2022-11-15T00:08:21;7.63;;;5.93;;
40755;SDS011;26461;45.630;9.418;2022-11-15T00:11:51;21.85;;;9.95;;
40755;SDS011;26461;45.630;9.418;2022-11-15T00:15:16;12.75;;;6.90;;
40755;SDS011;26461;45.630;9.418;2022-11-15T00:18:45;14.05;;;8.85;;
40755;SDS011;26461;45.630;9.418;2022-11-15T00:22:10;14.93;;;9.45;;
40755;SDS011;26461;45.630;9.418;2022-11-15T00:25:39;11.77;;;8.63;;
40755;SDS011;26461;45.630;9.418;2022-11-15T00:29:04;19.70;;;9.05;;
40755;SDS011;26461;45.630;9.418;2022-11-15T00:32:33;11.88;;;8.40;;
40755;SDS011;26461;45.630;9.418;2022-11-15T00:36:05;13.10;;;6.72;;
40755;SDS011;26461;45.630;9.418;2022-11-15T00:39:39;10.23;;;5.55;;
40755;SDS011;26461;45.630;9.418;2022-11-15T00:43:03;16.40;;;8.65;;
40755;SDS011;26461;45.630;9.418;2022-11-15T00:46:36;13.00;;;6.22;;
40755;SDS011;26461;45.630;9.418;2022-11-15T00:50:08;14.88;;;7.00;;
40755;SDS011;26461;45.630;9.418;2022-11-15T00:53:35;10.25;;;8.30;;
40755;SDS011;26461;45.630;9.418;2022-11-15T00:57:07;9.80;;;6.00;;
40755;SDS011;26461;45.630;9.418;2022-11-15T01:00:34;14.50;;;7.50;;
40755;SDS011;26461;45.630;9.418;2022-11-15T01:04:09;15.52;;;7.32;;
40755;SDS011;26461;45.630;9.418;2022-11-15T01:07:39;10.02;;;5.85;;
40755;SDS011;26461;45.630;9.418;2022-11-15T01:11:09;10.70;;;4.95;;
40755;SDS011;26461;45.630;9.418;2022-11-15T01:14:42;9.20;;;5.80;;
40755;SDS011;26461;45.630;9.418;2022-11-15T01:18:07;11.48;;;5.43;;
40755;SDS011;26461;45.630;9.418;2022-11-15T01:21:38;10.60;;;5.85;;
40755;SDS011;26461;45.630;9.418;2022-11-15T01:25:07;10.68;;;5.97;;
40755;SDS011;26461;45.630;9.418;2022-11-15T01:28:44;21.85;;;8.23;;
40755;SDS011;26461;45.630;9.418;2022-11-15T01:32:19;20.38;;;8.48;;
40755;SDS011;26461;45.630;9.418;2022-11-15T01:35:47;23.00;;;8.43;;
40755;SDS011;26461;45.630;9.418;2022-11-15T01:39:18;15.93;;;7.28;;
40755;SDS011;26461;45.630;9.418;2022-11-15T01:42:48;18.10;;;8.73;;
40755;SDS011;26461;45.630;9.418;2022-11-15T01:50:00;20.52;;;6.28;;
40755;SDS011;26461;45.630;9.418;2022-11-15T01:53:35;11.57;;;7.38;;
40755;SDS011;26461;45.630;9.418;2022-11-15T01:57:03;6.82;;;6.30;;
40755;SDS011;26461;45.630;9.418;2022-11-15T02:00:39;12.32;;;6.70;;
40755;SDS011;26461;45.630;9.418;2022-11-15T02:04:25;17.52;;;8.18;;
40755;SDS011;26461;45.630;9.418;2022-11-15T02:07:59;11.52;;;7.18;;
40755;SDS011;26461;45.630;9.418;2022-11-15T02:11:29;7.55;;;4.50;;
40755;SDS011;26461;45.630;9.418;2022-11-15T02:14:53;13.23;;;6.78;;
40755;SDS011;26461;45.630;9.418;2022-11-15T02:22:17;14.40;;;4.65;;
40755;SDS011;26461;45.630;9.418;2022-11-15T02:29:53;8.50;;;5.03;;
40755;SDS011;26461;45.630;9.418;2022-11-15T02:33:42;16.63;;;5.90;;
40755;SDS011;26461;45.630;9.418;2022-11-15T02:41:30;12.88;;;5.30;;
40755;SDS011;26461;45.630;9.418;2022-11-15T02:45:05;11.30;;;5.93;;
40755;SDS011;26461;45.630;9.418;2022-11-15T02:48:41;8.38;;;3.58;;
40755;SDS011;26461;45.630;9.418;2022-11-15T02:52:16;6.00;;;4.50;;
40755;SDS011;26461;45.630;9.418;2022-11-15T02:55:49;8.27;;;4.05;;
40755;SDS011;26461;45.630;9.418;2022-11-15T03:07:11;6.82;;;3.03;;
40755;SDS011;26461;45.630;9.418;2022-11-15T03:14:53;13.65;;;2.90;;
40755;SDS011;26461;45.630;9.418;2022-11-15T03:18:32;10.07;;;4.55;;
40755;SDS011;26461;45.630;9.418;2022-11-15T03:22:09;11.85;;;4.00;;
40755;SDS011;26461;45.630;9.418;2022-11-15T03:25:44;11.15;;;4.47;;
40755;SDS011;26461;45.630;9.418;2022-11-15T03:29:28;6.13;;;3.10;;
40755;SDS011;26461;45.630;9.418;2022-11-15T03:33:04;16.65;;;5.45;;
40755;SDS011;26461;45.630;9.418;2022-11-15T03:36:33;8.45;;;3.83;;
40755;SDS011;26461;45.630;9.418;2022-11-15T03:40:04;6.63;;;3.30;;
40755;SDS011;26461;45.630;9.418;2022-11-15T03:44:08;10.30;;;4.05;;
40755;SDS011;26461;45.630;9.418;2022-11-15T03:48:10;7.32;;;3.58;;
40755;SDS011;26461;45.630;9.418;2022-11-15T03:51:42;7.90;;;3.72;;
40755;SDS011;26461;45.630;9.418;2022-11-15T03:55:12;12.52;;;4.45;;
40755;SDS011;26461;45.630;9.418;2022-11-15T03:58:45;9.15;;;4.32;;
40755;SDS011;26461;45.630;9.418;2022-11-15T04:02:15;7.43;;;2.80;;
40755;SDS011;26461;45.630;9.418;2022-11-15T04:05:44;9.25;;;4.90;;
40755;SDS011;26461;45.630;9.418;2022-11-15T04:09:17;6.22;;;2.58;;
40755;SDS011;26461;45.630;9.418;2022-11-15T04:12:47;11.90;;;3.38;;
40755;SDS011;26461;45.630;9.418;2022-11-15T04:16:14;8.63;;;3.25;;
40755;SDS011;26461;45.630;9.418;2022-11-15T04:19:50;11.55;;;6.05;;
40755;SDS011;26461;45.630;9.418;2022-11-15T04:23:37;6.68;;;2.05;;
40755;SDS011;26461;45.630;9.418;2022-11-15T04:27:26;8.40;;;2.65;;
40755;SDS011;26461;45.630;9.418;2022-11-15T04:30:56;8.32;;;4.60;;
40755;SDS011;26461;45.630;9.418;2022-11-15T04:34:29;8.55;;;5.45;;
40755;SDS011;26461;45.630;9.418;2022-11-15T04:37:58;10.20;;;3.85;;
40755;SDS011;26461;45.630;9.418;2022-11-15T04:41:23;4.85;;;3.50;;
40755;SDS011;26461;45.630;9.418;2022-11-15T04:44:57;7.57;;;4.20;;
40755;SDS011;26461;45.630;9.418;2022-11-15T04:48:26;7.45;;;2.75;;
40755;SDS011;26461;45.630;9.418;2022-11-15T04:51:53;14.73;;;5.70;;
40755;SDS011;26461;45.630;9.418;2022-11-15T04:55:22;4.05;;;2.13;;
40755;SDS011;26461;45.630;9.418;2022-11-15T04:58:52;7.30;;;2.40;;
40755;SDS011;26461;45.630;9.418;2022-11-15T05:02:20;9.23;;;2.97;;
40755;SDS011;26461;45.630;9.418;2022-11-15T05:05:46;10.07;;;3.05;;
40755;SDS011;26461;45.630;9.418;2022-11-15T05:09:10;4.00;;;1.60;;
40755;SDS011;26461;45.630;9.418;2022-11-15T05:12:41;4.93;;;1.52;;
40755;SDS011;26461;45.630;9.418;2022-11-15T05:16:13;5.25;;;1.90;;
40755;SDS011;26461;45.630;9.418;2022-11-15T05:19:41;8.65;;;3.80;;
40755;SDS011;26461;45.630;9.418;2022-11-15T05:23:12;7.15;;;3.15;;
40755;SDS011;26461;45.630;9.418;2022-11-15T05:26:44;10.88;;;2.22;;
40755;SDS011;26461;45.630;9.418;2022-11-15T05:30:08;11.02;;;4.80;;
40755;SDS011;26461;45.630;9.418;2022-11-15T05:33:40;7.10;;;2.95;;
40755;SDS011;26461;45.630;9.418;2022-11-15T05:37:07;6.93;;;3.30;;
40755;SDS011;26461;45.630;9.418;2022-11-15T05:40:36;6.22;;;3.38;;
40755;SDS011;26461;45.630;9.418;2022-11-15T05:44:05;7.32;;;4.82;;
40755;SDS011;26461;45.630;9.418;2022-11-15T05:47:37;5.95;;;2.63;;
40755;SDS011;26461;45.630;9.418;2022-11-15T05:51:16;10.50;;;3.95;;
40755;SDS011;26461;45.630;9.418;2022-11-15T05:54:47;7.70;;;4.05;;
40755;SDS011;26461;45.630;9.418;2022-11-15T05:58:18;12.80;;;3.42;;
40755;SDS011;26461;45.630;9.418;2022-11-15T06:01:54;7.85;;;3.03;;
40755;SDS011;26461;45.630;9.418;2022-11-15T06:05:18;8.00;;;3.17;;
40755;SDS011;26461;45.630;9.418;2022-11-15T06:08:46;6.47;;;2.65;;
40755;SDS011;26461;45.630;9.418;2022-11-15T06:12:21;5.32;;;1.67;;
40755;SDS011;26461;45.630;9.418;2022-11-15T06:15:54;9.45;;;5.15;;
40755;SDS011;26461;45.630;9.418;2022-11-15T06:19:24;5.53;;;3.00;;
40755;SDS011;26461;45.630;9.418;2022-11-15T06:22:49;8.68;;;3.08;;
40755;SDS011;26461;45.630;9.418;2022-11-15T06:26:22;4.85;;;1.25;;
40755;SDS011;26461;45.630;9.418;2022-11-15T06:29:47;4.50;;;1.85;;
40755;SDS011;26461;45.630;9.418;2022-11-15T06:33:22;13.73;;;5.07;;
40755;SDS011;26461;45.630;9.418;2022-11-15T06:36:58;6.63;;;3.33;;
40755;SDS011;26461;45.630;9.418;2022-11-15T06:40:27;10.25;;;3.65;;
40755;SDS011;26461;45.630;9.418;2022-11-15T06:44:00;5.03;;;2.55;;
40755;SDS011;26461;45.630;9.418;2022-11-15T06:47:32;9.25;;;3.75;;
40755;SDS011;26461;45.630;9.418;2022-11-15T06:51:08;6.35;;;3.75;;
40755;SDS011;26461;45.630;9.418;2022-11-15T06:54:32;3.90;;;1.50;;
40755;SDS011;26461;45.630;9.418;2022-11-15T06:58:04;6.03;;;3.50;;
40755;SDS011;26461;45.630;9.418;2022-11-15T07:01:39;6.78;;;2.53;;
40755;SDS011;26461;45.630;9.418;2022-11-15T07:05:08;5.93;;;2.15;;
40755;SDS011;26461;45.630;9.418;2022-11-15T07:08:38;4.40;;;3.00;;
40755;SDS011;26461;45.630;9.418;2022-11-15T07:12:05;10.65;;;3.47;;
40755;SDS011;26461;45.630;9.418;2022-11-15T07:15:32;11.57;;;4.55;;
40755;SDS011;26461;45.630;9.418;2022-11-15T07:18:56;8.77;;;5.80;;
40755;SDS011;26461;45.630;9.418;2022-11-15T07:22:21;10.68;;;5.93;;
40755;SDS011;26461;45.630;9.418;2022-11-15T07:25:48;6.97;;;5.65;;
40755;SDS011;26461;45.630;9.418;2022-11-15T07:29:17;17.08;;;7.53;;
40755;SDS011;26461;45.630;9.418;2022-11-15T07:32:47;11.30;;;8.38;;
40755;SDS011;26461;45.630;9.418;2022-11-15T07:36:21;20.55;;;8.38;;
40755;SDS011;26461;45.630;9.418;2022-11-15T07:39:50;18.85;;;9.60;;
40755;SDS011;26461;45.630;9.418;2022-11-15T07:43:25;17.52;;;10.43;;
40755;SDS011;26461;45.630;9.418;2022-11-15T07:46:55;20.40;;;9.77;;
40755;SDS011;26461;45.630;9.418;2022-11-15T07:50:25;12.60;;;7.90;;
40755;SDS011;26461;45.630;9.418;2022-11-15T07:53:54;16.08;;;9.63;;
40755;SDS011;26461;45.630;9.418;2022-11-15T07:57:27;13.07;;;8.43;;
40755;SDS011;26461;45.630;9.418;2022-11-15T08:00:57;27.17;;;10.77;;
40755;SDS011;26461;45.630;9.418;2022-11-15T08:04:27;17.67;;;9.38;;
40755;SDS011;26461;45.630;9.418;2022-11-15T08:07:56;12.48;;;8.52;;
40755;SDS011;26461;45.630;9.418;2022-11-15T08:11:21;9.43;;;7.65;;
40755;SDS011;26461;45.630;9.418;2022-11-15T08:14:53;10.27;;;5.45;;
40755;SDS011;26461;45.630;9.418;2022-11-15T08:18:24;12.13;;;5.50;;
40755;SDS011;26461;45.630;9.418;2022-11-15T08:21:48;10.57;;;7.22;;
40755;SDS011;26461;45.630;9.418;2022-11-15T08:25:15;11.05;;;6.32;;
40755;SDS011;26461;45.630;9.418;2022-11-15T08:28:44;10.27;;;6.30;;
40755;SDS011;26461;45.630;9.418;2022-11-15T08:32:13;13.57;;;6.93;;
40755;SDS011;26461;45.630;9.418;2022-11-15T08:35:43;10.35;;;5.95;;
40755;SDS011;26461;45.630;9.418;2022-11-15T08:39:10;13.02;;;5.85;;
40755;SDS011;26461;45.630;9.418;2022-11-15T08:42:37;9.73;;;6.10;;
40755;SDS011;26461;45.630;9.418;2022-11-15T08:46:07;11.18;;;4.80;;
40755;SDS011;26461;45.630;9.418;2022-11-15T08:49:44;13.25;;;6.93;;
40755;SDS011;26461;45.630;9.418;2022-11-15T08:53:16;14.27;;;3.67;;
40755;SDS011;26461;45.630;9.418;2022-11-15T08:56:45;12.82;;;7.18;;
40755;SDS011;26461;45.630;9.418;2022-11-15T09:00:15;16.38;;;10.07;;
40755;SDS011;26461;45.630;9.418;2022-11-15T09:03:44;11.23;;;5.50;;
40755;SDS011;26461;45.630;9.418;2022-11-15T09:07:16;9.13;;;5.78;;
40755;SDS011;26461;45.630;9.418;2022-11-15T09:10:45;10.75;;;5.45;;
40755;SDS011;26461;45.630;9.418;2022-11-15T09:14:16;6.20;;;4.10;;
40755;SDS011;26461;45.630;9.418;2022-11-15T09:17:48;10.18;;;3.83;;
40755;SDS011;26461;45.630;9.418;2022-11-15T09:21:12;12.98;;;3.55;;
40755;SDS011;26461;45.630;9.418;2022-11-15T09:24:47;6.20;;;2.75;;
40755;SDS011;26461;45.630;9.418;2022-11-15T09:28:17;6.72;;;2.47;;
40755;SDS011;26461;45.630;9.418;2022-11-15T09:31:56;6.55;;;2.55;;
40755;SDS011;26461;45.630;9.418;2022-11-15T09:35:26;12.25;;;4.20;;
40755;SDS011;26461;45.630;9.418;2022-11-15T09:39:02;5.00;;;1.98;;
40755;SDS011;26461;45.630;9.418;2022-11-15T09:42:55;3.72;;;1.92;;
40755;SDS011;26461;45.630;9.418;2022-11-15T09:46:48;9.55;;;3.00;;
40755;SDS011;26461;45.630;9.418;2022-11-15T09:50:31;6.85;;;3.10;;
40755;SDS011;26461;45.630;9.418;2022-11-15T09:54:05;5.15;;;1.92;;
40755;SDS011;26461;45.630;9.418;2022-11-15T10:00:50;7.80;;;2.80;;
40755;SDS011;26461;45.630;9.418;2022-11-15T10:04:13;8.48;;;2.95;;
40755;SDS011;26461;45.630;9.418;2022-11-15T10:11:31;11.10;;;3.33;;
40755;SDS011;26461;45.630;9.418;2022-11-15T10:15:05;5.18;;;1.65;;
40755;SDS011;26461;45.630;9.418;2022-11-15T10:18:35;11.55;;;2.72;;
40755;SDS011;26461;45.630;9.418;2022-11-15T10:22:25;7.28;;;5.22;;
40755;SDS011;26461;45.630;9.418;2022-11-15T10:25:42;5.72;;;3.10;;
40755;SDS011;26461;45.630;9.418;2022-11-15T10:28:54;5.65;;;2.13;;
40755;SDS011;26461;45.630;9.418;2022-11-15T10:32:10;10.63;;;2.70;;
40755;SDS011;26461;45.630;9.418;2022-11-15T10:35:22;3.00;;;1.10;;
40755;SDS011;26461;45.630;9.418;2022-11-15T10:41:58;5.22;;;2.33;;
40755;SDS011;26461;45.630;9.418;2022-11-15T10:45:24;10.80;;;3.70;;
40755;SDS011;26461;45.630;9.418;2022-11-15T10:48:32;8.15;;;3.33;;
40755;SDS011;26461;45.630;9.418;2022-11-15T10:52:16;9.40;;;2.22;;
40755;SDS011;26461;45.630;9.418;2022-11-15T10:55:29;7.35;;;3.17;;
40755;SDS011;26461;45.630;9.418;2022-11-15T10:58:54;5.55;;;4.15;;
40755;SDS011;26461;45.630;9.418;2022-11-15T11:02:23;10.23;;;3.67;;
40755;SDS011;26461;45.630;9.418;2022-11-15T11:05:50;11.38;;;5.65;;
40755;SDS011;26461;45.630;9.418;2022-11-15T11:12:53;6.05;;;3.50;;
40755;SDS011;26461;45.630;9.418;2022-11-15T11:20:11;18.05;;;3.22;;
40755;SDS011;26461;45.630;9.418;2022-11-15T11:27:26;5.13;;;3.60;;
40755;SDS011;26461;45.630;9.418;2022-11-15T11:34:50;9.45;;;3.65;;
40755;SDS011;26461;45.630;9.418;2022-11-15T11:42:37;8.50;;;2.55;;
40755;SDS011;26461;45.630;9.418;2022-11-15T11:49:49;5.38;;;2.60;;
40755;SDS011;26461;45.630;9.418;2022-11-15T11:53:15;7.30;;;3.85;;
40755;SDS011;26461;45.630;9.418;2022-11-15T11:56:33;5.55;;;3.78;;
40755;SDS011;26461;45.630;9.418;2022-11-15T11:59:49;8.77;;;4.15;;
40755;SDS011;26461;45.630;9.418;2022-11-15T12:03:28;7.85;;;5.45;;
40755;SDS011;26461;45.630;9.418;2022-11-15T12:13:33;6.07;;;3.22;;
40755;SDS011;26461;45.630;9.418;2022-11-15T12:16:47;13.48;;;4.90;;
40755;SDS011;26461;45.630;9.418;2022-11-15T12:20:06;12.68;;;3.60;;
40755;SDS011;26461;45.630;9.418;2022-11-15T12:23:27;8.73;;;2.95;;
40755;SDS011;26461;45.630;9.418;2022-11-15T12:27:00;10.30;;;3.88;;
40755;SDS011;26461;45.630;9.418;2022-11-15T12:30:20;6.75;;;5.57;;
40755;SDS011;26461;45.630;9.418;2022-11-15T12:33:37;7.70;;;2.08;;
40755;SDS011;26461;45.630;9.418;2022-11-15T12:37:32;4.32;;;2.30;;
40755;SDS011;26461;45.630;9.418;2022-11-15T12:41:17;10.40;;;4.30;;
40755;SDS011;26461;45.630;9.418;2022-11-15T12:47:49;5.80;;;2.67;;
40755;SDS011;26461;45.630;9.418;2022-11-15T12:50:57;4.30;;;2.60;;
40755;SDS011;26461;45.630;9.418;2022-11-15T12:54:29;8.95;;;5.00;;
40755;SDS011;26461;45.630;9.418;2022-11-15T12:57:42;5.45;;;3.17;;
40755;SDS011;26461;45.630;9.418;2022-11-15T13:00:55;4.47;;;2.83;;
40755;SDS011;26461;45.630;9.418;2022-11-15T13:11:06;10.07;;;5.57;;
40755;SDS011;26461;45.630;9.418;2022-11-15T13:14:46;9.73;;;4.10;;
40755;SDS011;26461;45.630;9.418;2022-11-15T13:21:50;10.65;;;4.40;;
40755;SDS011;26461;45.630;9.418;2022-11-15T13:25:25;6.53;;;2.17;;
40755;SDS011;26461;45.630;9.418;2022-11-15T13:28:50;5.60;;;3.83;;
40755;SDS011;26461;45.630;9.418;2022-11-15T13:32:10;7.55;;;2.85;;
40755;SDS011;26461;45.630;9.418;2022-11-15T13:35:21;17.30;;;5.25;;
40755;SDS011;26461;45.630;9.418;2022-11-15T13:38:33;8.70;;;3.63;;
40755;SDS011;26461;45.630;9.418;2022-11-15T13:41:52;10.40;;;3.35;;
40755;SDS011;26461;45.630;9.418;2022-11-15T13:45:01;17.67;;;7.05;;
40755;SDS011;26461;45.630;9.418;2022-11-15T13:48:17;7.03;;;3.08;;
40755;SDS011;26461;45.630;9.418;2022-11-15T13:51:35;8.27;;;4.53;;
40755;SDS011;26461;45.630;9.418;2022-11-15T13:58:30;10.48;;;4.80;;
40755;SDS011;26461;45.630;9.418;2022-11-15T14:01:39;6.97;;;3.13;;
40755;SDS011;26461;45.630;9.418;2022-11-15T14:05:03;12.15;;;4.30;;
40755;SDS011;26461;45.630;9.418;2022-11-15T14:08:22;7.35;;;3.60;;
40755;SDS011;26461;45.630;9.418;2022-11-15T14:11:29;8.73;;;4.30;;
40755;SDS011;26461;45.630;9.418;2022-11-15T14:14:35;9.45;;;2.80;;
40755;SDS011;26461;45.630;9.418;2022-11-15T14:17:52;8.25;;;6.07;;
40755;SDS011;26461;45.630;9.418;2022-11-15T14:21:12;14.98;;;5.18;;
40755;SDS011;26461;45.630;9.418;2022-11-15T14:24:21;10.35;;;4.82;;
40755;SDS011;26461;45.630;9.418;2022-11-15T14:27:29;10.25;;;3.17;;
40755;SDS011;26461;45.630;9.418;2022-11-15T14:30:42;7.80;;;5.30;;
40755;SDS011;26461;45.630;9.418;2022-11-15T14:33:59;16.90;;;4.75;;
40755;SDS011;26461;45.630;9.418;2022-11-15T14:37:25;6.00;;;3.75;;
40755;SDS011;26461;45.630;9.418;2022-11-15T14:40:39;6.35;;;3.38;;
40755;SDS011;26461;45.630;9.418;2022-11-15T14:43:53;8.95;;;3.92;;
40755;SDS011;26461;45.630;9.418;2022-11-15T14:47:07;7.28;;;2.65;;
40755;SDS011;26461;45.630;9.418;2022-11-15T14:50:23;8.50;;;4.93;;
40755;SDS011;26461;45.630;9.418;2022-11-15T14:53:32;12.23;;;4.32;;
40755;SDS011;26461;45.630;9.418;2022-11-15T14:56:37;11.27;;;5.72;;
40755;SDS011;26461;45.630;9.418;2022-11-15T14:59:46;16.83;;;6.82;;
40755;SDS011;26461;45.630;9.418;2022-11-15T15:02:52;15.20;;;4.13;;
40755;SDS011;26461;45.630;9.418;2022-11-15T15:06:12;13.82;;;4.00;;
40755;SDS011;26461;45.630;9.418;2022-11-15T15:09:21;12.82;;;3.95;;
40755;SDS011;26461;45.630;9.418;2022-11-15T15:12:29;10.18;;;4.43;;
40755;SDS011;26461;45.630;9.418;2022-11-15T15:15:37;9.20;;;3.22;;
40755;SDS011;26461;45.630;9.418;2022-11-15T15:18:58;20.05;;;4.63;;
40755;SDS011;26461;45.630;9.418;2022-11-15T15:22:13;7.85;;;3.60;;
40755;SDS011;26461;45.630;9.418;2022-11-15T15:25:34;15.32;;;6.13;;
40755;SDS011;26461;45.630;9.418;2022-11-15T15:28:40;10.32;;;5.90;;
40755;SDS011;26461;45.630;9.418;2022-11-15T15:31:47;10.32;;;3.70;;
40755;SDS011;26461;45.630;9.418;2022-11-15T15:35:01;12.15;;;5.45;;
40755;SDS011;26461;45.630;9.418;2022-11-15T15:38:10;7.15;;;3.53;;
40755;SDS011;26461;45.630;9.418;2022-11-15T15:41:22;9.30;;;4.03;;
40755;SDS011;26461;45.630;9.418;2022-11-15T15:44:33;9.30;;;3.90;;
40755;SDS011;26461;45.630;9.418;2022-11-15T15:47:48;13.18;;;4.45;;
40755;SDS011;26461;45.630;9.418;2022-11-15T15:51:10;9.70;;;5.15;;
40755;SDS011;26461;45.630;9.418;2022-11-15T15:54:22;16.17;;;5.55;;
40755;SDS011;26461;45.630;9.418;2022-11-15T15:57:32;13.73;;;3.72;;
40755;SDS011;26461;45.630;9.418;2022-11-15T16:00:38;10.30;;;5.05;;
40755;SDS011;26461;45.630;9.418;2022-11-15T16:03:49;10.85;;;4.85;;
40755;SDS011;26461;45.630;9.418;2022-11-15T16:07:00;6.90;;;4.45;;
40755;SDS011;26461;45.630;9.418;2022-11-15T16:10:17;9.35;;;5.00;;
40755;SDS011;26461;45.630;9.418;2022-11-15T16:13:24;5.70;;;4.05;;
40755;SDS011;26461;45.630;9.418;2022-11-15T16:16:35;8.10;;;6.22;;
40755;SDS011;26461;45.630;9.418;2022-11-15T16:19:41;12.63;;;6.15;;
40755;SDS011;26461;45.630;9.418;2022-11-15T16:22:51;8.73;;;5.50;;
40755;SDS011;26461;45.630;9.418;2022-11-15T16:26:04;14.05;;;5.32;;
40755;SDS011;26461;45.630;9.418;2022-11-15T16:29:30;10.43;;;4.80;;
40755;SDS011;26461;45.630;9.418;2022-11-15T16:32:40;12.73;;;4.05;;
40755;SDS011;26461;45.630;9.418;2022-11-15T16:35:46;8.68;;;4.03;;
40755;SDS011;26461;45.630;9.418;2022-11-15T16:38:55;12.98;;;5.78;;
40755;SDS011;26461;45.630;9.418;2022-11-15T16:42:06;8.52;;;5.22;;
40755;SDS011;26461;45.630;9.418;2022-11-15T16:45:17;8.60;;;3.40;;
40755;SDS011;26461;45.630;9.418;2022-11-15T16:48:26;10.00;;;3.22;;
40755;SDS011;26461;45.630;9.418;2022-11-15T16:51:37;9.68;;;3.92;;
40755;SDS011;26461;45.630;9.418;2022-11-15T16:54:50;9.35;;;4.22;;
40755;SDS011;26461;45.630;9.418;2022-11-15T16:58:01;10.23;;;6.15;;
40755;SDS011;26461;45.630;9.418;2022-11-15T17:01:15;9.10;;;3.80;;
40755;SDS011;26461;45.630;9.418;2022-11-15T17:04:28;10.80;;;3.92;;
40755;SDS011;26461;45.630;9.418;2022-11-15T17:07:37;6.82;;;4.50;;
40755;SDS011;26461;45.630;9.418;2022-11-15T17:10:43;9.27;;;4.38;;
40755;SDS011;26461;45.630;9.418;2022-11-15T17:13:48;8.63;;;4.13;;
40755;SDS011;26461;45.630;9.418;2022-11-15T17:16:54;7.70;;;2.50;;
40755;SDS011;26461;45.630;9.418;2022-11-15T17:19:59;15.90;;;4.75;;
40755;SDS011;26461;45.630;9.418;2022-11-15T17:23:12;10.52;;;2.78;;
40755;SDS011;26461;45.630;9.418;2022-11-15T17:26:23;9.43;;;2.88;;
40755;SDS011;26461;45.630;9.418;2022-11-15T17:29:34;10.38;;;5.05;;
40755;SDS011;26461;45.630;9.418;2022-11-15T17:32:44;8.07;;;2.92;;
40755;SDS011;26461;45.630;9.418;2022-11-15T17:35:58;8.40;;;2.92;;
40755;SDS011;26461;45.630;9.418;2022-11-15T17:39:07;12.55;;;3.70;;
40755;SDS011;26461;45.630;9.418;2022-11-15T17:42:18;4.65;;;1.83;;
40755;SDS011;26461;45.630;9.418;2022-11-15T17:45:24;4.70;;;1.38;;
40755;SDS011;26461;45.630;9.418;2022-11-15T17:48:34;10.35;;;2.65;;
40755;SDS011;26461;45.630;9.418;2022-11-15T17:51:40;8.15;;;1.75;;
40755;SDS011;26461;45.630;9.418;2022-11-15T17:54:51;4.95;;;1.67;;
40755;SDS011;26461;45.630;9.418;2022-11-15T17:58:02;2.85;;;1.35;;
40755;SDS011;26461;45.630;9.418;2022-11-15T18:01:19;8.30;;;4.32;;
40755;SDS011;26461;45.630;9.418;2022-11-15T18:04:32;5.82;;;2.67;;
40755;SDS011;26461;45.630;9.418;2022-11-15T18:07:51;7.82;;;2.25;;
40755;SDS011;26461;45.630;9.418;2022-11-15T18:14:22;9.10;;;2.47;;
40755;SDS011;26461;45.630;9.418;2022-11-15T18:17:33;7.60;;;2.45;;
40755;SDS011;26461;45.630;9.418;2022-11-15T18:20:40;6.38;;;2.08;;
40755;SDS011;26461;45.630;9.418;2022-11-15T18:23:47;8.35;;;3.80;;
40755;SDS011;26461;45.630;9.418;2022-11-15T18:26:56;8.32;;;3.03;;
40755;SDS011;26461;45.630;9.418;2022-11-15T18:30:04;8.20;;;4.45;;
40755;SDS011;26461;45.630;9.418;2022-11-15T18:33:10;12.45;;;6.10;;
40755;SDS011;26461;45.630;9.418;2022-11-15T18:36:26;5.60;;;2.97;;
40755;SDS011;26461;45.630;9.418;2022-11-15T18:39:33;8.00;;;3.65;;
40755;SDS011;26461;45.630;9.418;2022-11-15T18:42:44;10.07;;;3.78;;
40755;SDS011;26461;45.630;9.418;2022-11-15T18:45:49;24.77;;;5.38;;
40755;SDS011;26461;45.630;9.418;2022-11-15T18:48:54;10.23;;;4.93;;
40755;SDS011;26461;45.630;9.418;2022-11-15T18:52:05;13.00;;;6.68;;
40755;SDS011;26461;45.630;9.418;2022-11-15T18:55:12;8.82;;;3.83;;
40755;SDS011;26461;45.630;9.418;2022-11-15T18:58:18;10.27;;;4.50;;
40755;SDS011;26461;45.630;9.418;2022-11-15T19:01:29;13.82;;;6.80;;
40755;SDS011;26461;45.630;9.418;2022-11-15T19:04:44;14.05;;;8.27;;
40755;SDS011;26461;45.630;9.418;2022-11-15T19:07:50;13.57;;;5.40;;
40755;SDS011;26461;45.630;9.418;2022-11-15T19:11:01;15.40;;;9.48;;
40755;SDS011;26461;45.630;9.418;2022-11-15T19:14:15;11.57;;;5.88;;
40755;SDS011;26461;45.630;9.418;2022-11-15T19:17:26;10.73;;;6.20;;
40755;SDS011;26461;45.630;9.418;2022-11-15T19:20:34;9.93;;;4.47;;
40755;SDS011;26461;45.630;9.418;2022-11-15T19:23:42;17.90;;;7.03;;
40755;SDS011;26461;45.630;9.418;2022-11-15T19:26:49;9.82;;;6.07;;
40755;SDS011;26461;45.630;9.418;2022-11-15T19:29:54;11.20;;;4.38;;
40755;SDS011;26461;45.630;9.418;2022-11-15T19:33:03;19.55;;;3.70;;
40755;SDS011;26461;45.630;9.418;2022-11-15T19:36:21;9.80;;;3.08;;
40755;SDS011;26461;45.630;9.418;2022-11-15T19:39:36;11.10;;;3.60;;
40755;SDS011;26461;45.630;9.418;2022-11-15T19:43:01;10.40;;;4.40;;
40755;SDS011;26461;45.630;9.418;2022-11-15T19:46:14;8.20;;;4.35;;
40755;SDS011;26461;45.630;9.418;2022-11-15T19:49:33;6.30;;;2.55;;
40755;SDS011;26461;45.630;9.418;2022-11-15T19:52:48;6.72;;;2.33;;
40755;SDS011;26461;45.630;9.418;2022-11-15T19:56:00;13.68;;;3.60;;
40755;SDS011;26461;45.630;9.418;2022-11-15T19:59:16;15.35;;;6.22;;
40755;SDS011;26461;45.630;9.418;2022-11-15T20:02:29;11.00;;;5.70;;
40755;SDS011;26461;45.630;9.418;2022-11-15T20:05:41;5.05;;;2.67;;
40755;SDS011;26461;45.630;9.418;2022-11-15T20:08:52;3.17;;;1.52;;
40755;SDS011;26461;45.630;9.418;2022-11-15T20:12:11;9.15;;;4.45;;
40755;SDS011;26461;45.630;9.418;2022-11-15T20:15:18;10.50;;;3.92;;
40755;SDS011;26461;45.630;9.418;2022-11-15T20:18:52;5.95;;;1.77;;
40755;SDS011;26461;45.630;9.418;2022-11-15T20:22:09;14.63;;;5.15;;
40755;SDS011;26461;45.630;9.418;2022-11-15T20:25:21;10.82;;;5.25;;
40755;SDS011;26461;45.630;9.418;2022-11-15T20:28:27;10.43;;;5.60;;
40755;SDS011;26461;45.630;9.418;2022-11-15T20:31:33;7.82;;;5.40;;
40755;SDS011;26461;45.630;9.418;2022-11-15T20:34:50;9.40;;;4.82;;
40755;SDS011;26461;45.630;9.418;2022-11-15T20:37:55;8.15;;;4.78;;
40755;SDS011;26461;45.630;9.418;2022-11-15T20:41:01;21.50;;;6.22;;
40755;SDS011;26461;45.630;9.418;2022-11-15T20:44:13;10.88;;;6.38;;
40755;SDS011;26461;45.630;9.418;2022-11-15T20:47:25;8.27;;;4.45;;
40755;SDS011;26461;45.630;9.418;2022-11-15T20:50:35;9.15;;;6.60;;
40755;SDS011;26461;45.630;9.418;2022-11-15T20:53:41;8.95;;;4.53;;
40755;SDS011;26461;45.630;9.418;2022-11-15T20:56:53;12.93;;;3.70;;
40755;SDS011;26461;45.630;9.418;2022-11-15T21:00:02;10.38;;;2.90;;
40755;SDS011;26461;45.630;9.418;2022-11-15T21:03:09;5.53;;;3.25;;
40755;SDS011;26461;45.630;9.418;2022-11-15T21:06:16;10.88;;;4.90;;
40755;SDS011;26461;45.630;9.418;2022-11-15T21:09:24;12.40;;;2.95;;
40755;SDS011;26461;45.630;9.418;2022-11-15T21:12:48;7.50;;;2.60;;
40755;SDS011;26461;45.630;9.418;2022-11-15T21:15:55;9.43;;;5.28;;
40755;SDS011;26461;45.630;9.418;2022-11-15T21:19:03;7.10;;;4.00;;
40755;SDS011;26461;45.630;9.418;2022-11-15T21:22:15;4.38;;;3.47;;
40755;SDS011;26461;45.630;9.418;2022-11-15T21:25:26;8.45;;;3.33;;
40755;SDS011;26461;45.630;9.418;2022-11-15T21:28:37;8.63;;;3.90;;
40755;SDS011;26461;45.630;9.418;2022-11-15T21:31:51;8.00;;;5.30;;
40755;SDS011;26461;45.630;9.418;2022-11-15T21:35:03;12.77;;;3.35;;
40755;SDS011;26461;45.630;9.418;2022-11-15T21:38:10;10.07;;;4.63;;